Сообщение об ошибке

  • Warning: ini_set(): Headers already sent. You cannot change the session module's ini settings at this time in drupal_environment_initialize() (line 699 of /home/a/auditpro/2.auditpro.beget.tech/public_html/st/includes/bootstrap.inc).
  • Warning: ini_set(): Headers already sent. You cannot change the session module's ini settings at this time in drupal_environment_initialize() (line 700 of /home/a/auditpro/2.auditpro.beget.tech/public_html/st/includes/bootstrap.inc).
  • Warning: ini_set(): Headers already sent. You cannot change the session module's ini settings at this time in drupal_environment_initialize() (line 701 of /home/a/auditpro/2.auditpro.beget.tech/public_html/st/includes/bootstrap.inc).
  • Warning: ini_set(): Headers already sent. You cannot change the session module's ini settings at this time in drupal_environment_initialize() (line 704 of /home/a/auditpro/2.auditpro.beget.tech/public_html/st/includes/bootstrap.inc).
  • Warning: ini_set(): Headers already sent. You cannot change the session module's ini settings at this time in drupal_environment_initialize() (line 706 of /home/a/auditpro/2.auditpro.beget.tech/public_html/st/includes/bootstrap.inc).
  • Warning: ini_set(): Headers already sent. You cannot change the session module's ini settings at this time in include_once() (line 290 of /home/a/auditpro/2.auditpro.beget.tech/public_html/st/sites/default/settings.php).
  • Warning: ini_set(): Headers already sent. You cannot change the session module's ini settings at this time in include_once() (line 291 of /home/a/auditpro/2.auditpro.beget.tech/public_html/st/sites/default/settings.php).
  • Warning: ini_set(): Headers already sent. You cannot change the session module's ini settings at this time in include_once() (line 299 of /home/a/auditpro/2.auditpro.beget.tech/public_html/st/sites/default/settings.php).
  • Warning: ini_set(): Headers already sent. You cannot change the session module's ini settings at this time in include_once() (line 306 of /home/a/auditpro/2.auditpro.beget.tech/public_html/st/sites/default/settings.php).
  • Warning: ini_set(): Headers already sent. You cannot change the session module's ini settings at this time in drupal_settings_initialize() (line 826 of /home/a/auditpro/2.auditpro.beget.tech/public_html/st/includes/bootstrap.inc).
  • Warning: ini_set(): Headers already sent. You cannot change the session module's ini settings at this time in drupal_settings_initialize() (line 835 of /home/a/auditpro/2.auditpro.beget.tech/public_html/st/includes/bootstrap.inc).
  • Warning: session_name(): Cannot change session name when headers already sent in drupal_settings_initialize() (line 838 of /home/a/auditpro/2.auditpro.beget.tech/public_html/st/includes/bootstrap.inc).

Таксимо

СКИДКИ НА СМАРТФОНЫ!

Карта отелей и гостиниц, располагающихся рядом с аэропортом Таксимо :

Таксимо Бурятия 56° 21' 42.48" N, 114° 55' 47.3988" E
Код аэродрома ИКАО
UIKG
Код аэродрома RU
УИКГ
Координаты
N56.36180° E114.92983°
Превышение над уровнем моря
496
Основная полоса
09/27
Курс магнитный
090,1/270,1
Длина основной ВПП
2000
Ширина основной ВПП
70
Покрытие основной ВПП
Нетвёрдое (гравий)
Освещение ВПП
Нет
Тип: 
Аэродром
Класс аэродрома: 
Принадлежность: 
ГА
Статус: 
Действующий
Сайт: 
E-mail аэродрома: 
Страна: 
Россия
Регион: 
Бурятия
Город: 
Дополнительная информация: 
Горный. Аэропорт МВЛ-2.

Скидки на навигаторы!

Найти трансфер

С помощью этой формы Вы можете найти трансфер из аэропорта Таксимо в город, аэропорт или вокзал:

Погода в аэропортах:

Авиационная погода в Нижнекамске

Регион: 
Погода METAR: 
UWKE 301930Z 20007MPS 6000 -SN BLSN BKN010 OVC021 M05/M06 Q1009 RESN R21/421539 NOSIG RMK QFE740/0987
Время наблюдения
2023-01-30T19:30:00Z
Температура C
-5.0
Точка росы
-6.0
Направление ветра
200
Скорость ветра (узлы)
14
Метео видимость
3.73
Облачность
BKN
OVC
Нижняя граница облачности (футы)
1000
2100
Явления погоды
-SN BLSN
Условия полета
MVFR
Аэропорт подробнее: 
BKN – значительная (рассеянная, разорванная) облачность; OVC – сплошная облачность;
-SN – слабый снег, BLSN – метель низовая или общая;

Авиационная погода в Иркутске

Регион: 
Погода METAR: 
UIII 301930Z 29004MPS 7000 -SHSN OVC050CB M10/M12 Q1022 RESHSN R30/490237 NOSIG RMK QFE722/0962
Время наблюдения
2023-01-30T19:30:00Z
Температура C
-10.0
Точка росы
-12.0
Направление ветра
290
Скорость ветра (узлы)
8
Метео видимость
4.35
Облачность
OVC
Нижняя граница облачности (футы)
5000
Явления погоды
-SHSN
Условия полета
MVFR
Аэропорт подробнее: 
OVC – сплошная облачность;
-SHSN - слабый ливневой снег;

Авиационная погода в Бухте Провидения

Погода METAR: 
UHMD 302000Z 15005MPS 1000 BR OVC008 M01/M02 Q1006 RMK QBB250 MT OBSC QFE753/1005
Время наблюдения
2023-01-30T20:00:00Z
Температура C
-1.0
Точка росы
-2.0
Направление ветра
150
Скорость ветра (узлы)
10
Метео видимость
0.62
Облачность
OVC
Нижняя граница облачности (футы)
800
Явления погоды
BR
Условия полета
LIFR
Аэропорт подробнее: 
OVC – сплошная облачность;
BR – дымка (видимость от 1 до 9 км);

Авиационная погода в Петропавловске

Регион: 
Погода METAR: 
UACP 301030Z 21005MPS 9999 -SN BKN048 M07/M10 Q1021 NOSIG RMK QFE753/1004
Время наблюдения
2023-01-30T10:30:00Z
Температура C
-7.0
Точка росы
-10.0
Направление ветра
210
Скорость ветра (узлы)
10
Метео видимость
6.21
Облачность
BKN
Нижняя граница облачности (футы)
4800
Явления погоды
-SN
Условия полета
VFR
Аэропорт подробнее: 
BKN – значительная (рассеянная, разорванная) облачность;
-SN – слабый снег;